createdAt,value
2023-04-16T00:01:02.285Z,101162.28
2023-04-16T00:03:28.812Z,101158.78
2023-04-16T00:05:59.249Z,101168.34
2023-04-16T00:08:25.682Z,101159.69
2023-04-16T00:10:53.465Z,101164.03
2023-04-16T00:13:20.024Z,101164.03
2023-04-16T00:15:46.513Z,101164.03
2023-04-16T00:18:12.990Z,101164.88
2023-04-16T00:20:39.654Z,101168.34
2023-04-16T00:23:06.242Z,101171.84
2023-04-16T00:25:32.689Z,101167.50
2023-04-16T00:27:59.121Z,101168.38
2023-04-16T00:30:25.620Z,101171.84
2023-04-16T00:32:52.075Z,101170.97
2023-04-16T00:35:18.618Z,101165.75
2023-04-16T00:37:45.119Z,101179.66
2023-04-16T00:40:11.878Z,101174.44
2023-04-16T00:42:38.362Z,101169.22
2023-04-16T00:45:05.708Z,101168.34
2023-04-16T00:47:32.339Z,101170.94
2023-04-16T00:49:59.067Z,101177.91
2023-04-16T00:52:26.565Z,101181.38
2023-04-16T00:54:53.970Z,101176.16
2023-04-16T00:57:23.794Z,101181.38
2023-04-16T00:59:51.425Z,101177.03
2023-04-16T01:02:18.049Z,101176.19
2023-04-16T01:04:44.540Z,101183.97
2023-04-16T01:07:11.259Z,101176.16
2023-04-16T01:09:37.699Z,101177.03
2023-04-16T01:12:04.260Z,101177.91
2023-04-16T01:14:36.115Z,101174.44
2023-04-16T01:17:03.832Z,101172.69
2023-04-16T01:19:36.170Z,101178.78
2023-04-16T01:22:03.609Z,101184.84
2023-04-16T01:24:30.428Z,101182.25
2023-04-16T01:27:00.132Z,101187.50
2023-04-16T01:29:27.228Z,101195.31
2023-04-16T01:31:54.324Z,101186.63
2023-04-16T01:34:20.885Z,101184.88
2023-04-16T01:36:47.322Z,101189.22
2023-04-16T01:39:15.674Z,101199.66
2023-04-16T01:41:43.713Z,101196.19
2023-04-16T01:44:10.316Z,101197.91
2023-04-16T01:46:38.157Z,101198.78
2023-04-16T01:49:05.830Z,101197.91
2023-04-16T01:51:32.430Z,101194.41
2023-04-16T01:53:59.055Z,101195.28
2023-04-16T01:56:25.909Z,101202.25
2023-04-16T01:58:53.174Z,101197.91
2023-04-16T02:01:20.002Z,101199.66
2023-04-16T02:03:47.519Z,101190.09
2023-04-16T02:06:14.770Z,101195.28
2023-04-16T02:08:41.707Z,101189.22
2023-04-16T02:11:08.217Z,101186.63
2023-04-16T02:13:34.836Z,101186.63
2023-04-16T02:16:02.520Z,101187.50
2023-04-16T02:18:29.122Z,101190.06
2023-04-16T02:20:58.444Z,101193.53
2023-04-16T02:23:24.895Z,101196.19
2023-04-16T02:25:51.603Z,101190.97
2023-04-16T02:28:18.121Z,101187.47
2023-04-16T02:30:44.611Z,101186.59
2023-04-16T02:33:12.441Z,101198.78
2023-04-16T02:35:39.781Z,101190.06
2023-04-16T02:38:07.156Z,101191.81
2023-04-16T02:40:34.070Z,101199.66
2023-04-16T02:43:00.757Z,101192.69
2023-04-16T02:45:27.387Z,101193.53
2023-04-16T02:47:54.058Z,101190.06
2023-04-16T02:50:20.696Z,101188.34
2023-04-16T02:52:47.186Z,101185.72
2023-04-16T02:55:13.644Z,101184.00
2023-04-16T02:57:40.761Z,101186.59
2023-04-16T03:00:09.041Z,101192.69
2023-04-16T03:02:35.570Z,101193.56
2023-04-16T03:05:02.992Z,101196.19
2023-04-16T03:07:29.535Z,101188.34
2023-04-16T03:09:56.006Z,101188.34
2023-04-16T03:12:22.467Z,101197.91
2023-04-16T03:14:51.318Z,101197.06
2023-04-16T03:17:17.914Z,101190.06
2023-04-16T03:19:44.347Z,101194.44
2023-04-16T03:22:10.782Z,101202.25
2023-04-16T03:24:38.149Z,101197.91
2023-04-16T03:27:04.553Z,101193.56
2023-04-16T03:29:31.025Z,101200.50
2023-04-16T03:31:57.668Z,101204.84
2023-04-16T03:34:24.074Z,101198.75
2023-04-16T03:36:50.554Z,101203.97
2023-04-16T03:39:17.072Z,101199.63
2023-04-16T03:41:43.455Z,101199.63
2023-04-16T03:44:09.867Z,101193.53
2023-04-16T03:46:36.465Z,101192.69
2023-04-16T03:49:02.990Z,101201.38
2023-04-16T03:51:29.428Z,101196.19
2023-04-16T03:53:56.006Z,101200.53
2023-04-16T03:56:22.512Z,101202.25
2023-04-16T03:58:49.037Z,101200.50
2023-04-16T04:01:15.419Z,101203.09
2023-04-16T04:03:42.027Z,101194.41
2023-04-16T04:06:09.289Z,101205.72
2023-04-16T04:08:35.774Z,101195.28
2023-04-16T04:11:02.268Z,101196.16
2023-04-16T04:13:28.668Z,101201.38
2023-04-16T04:15:55.270Z,101207.44
2023-04-16T04:18:21.818Z,101201.38
2023-04-16T04:20:48.302Z,101205.72
2023-04-16T04:23:14.856Z,101211.78
2023-04-16T04:25:41.368Z,101220.47
2023-04-16T04:28:07.875Z,101216.13
2023-04-16T04:30:35.799Z,101217.03
2023-04-16T04:33:02.372Z,101220.50
2023-04-16T04:35:29.087Z,101228.34
2023-04-16T04:37:55.679Z,101221.38
2023-04-16T04:40:22.348Z,101230.94
2023-04-16T04:42:48.916Z,101229.19
2023-04-16T04:45:16.018Z,101223.13
2023-04-16T04:47:42.536Z,101216.16
2023-04-16T04:50:09.574Z,101223.97
2023-04-16T04:52:36.318Z,101229.19
2023-04-16T04:55:02.763Z,101234.41
2023-04-16T04:57:29.152Z,101236.13
2023-04-16T04:59:55.613Z,101237.88
2023-04-16T05:02:22.172Z,101243.09
2023-04-16T05:04:48.801Z,101240.47
2023-04-16T05:07:15.298Z,101239.59
2023-04-16T05:09:41.713Z,101243.09
2023-04-16T05:12:08.457Z,101251.78
2023-04-16T05:14:36.272Z,101247.44
2023-04-16T05:17:02.883Z,101252.66
2023-04-16T05:19:29.415Z,101253.53
2023-04-16T05:21:56.275Z,101258.75
2023-04-16T05:24:23.122Z,101262.22
2023-04-16T05:26:49.605Z,101260.50
2023-04-16T05:29:16.053Z,101269.19
2023-04-16T05:31:42.543Z,101268.31
2023-04-16T05:34:08.981Z,101269.19
2023-04-16T05:36:35.436Z,101261.34
2023-04-16T05:39:02.006Z,101262.22
2023-04-16T05:41:28.544Z,101271.81
2023-04-16T05:43:55.247Z,101272.66
2023-04-16T05:46:21.647Z,101273.53
2023-04-16T05:48:48.060Z,101283.09
2023-04-16T05:51:14.537Z,101283.09
2023-04-16T05:53:41.024Z,101278.72
2023-04-16T05:56:07.895Z,101282.22
2023-04-16T05:58:34.330Z,101283.06
2023-04-16T06:01:01.423Z,101285.69
2023-04-16T06:03:28.041Z,101289.22
2023-04-16T06:05:54.666Z,101302.25
2023-04-16T06:08:21.293Z,101302.25
2023-04-16T06:10:47.897Z,101297.03
2023-04-16T06:13:14.801Z,101297.91
2023-04-16T06:15:41.270Z,101297.91
2023-04-16T06:18:07.814Z,101297.91
2023-04-16T06:20:34.322Z,101305.75
2023-04-16T06:23:00.997Z,101306.56
2023-04-16T06:25:27.441Z,101304.84
2023-04-16T06:27:53.886Z,101311.78
2023-04-16T06:30:20.518Z,101304.88
2023-04-16T06:32:47.933Z,101318.78
2023-04-16T06:35:14.679Z,101317.00
2023-04-16T06:37:41.468Z,101315.31
2023-04-16T06:40:08.483Z,101319.66
2023-04-16T06:42:34.991Z,101328.34
2023-04-16T06:45:01.616Z,101328.34
2023-04-16T06:47:28.154Z,101327.44
2023-04-16T06:49:54.643Z,101332.66
2023-04-16T06:52:21.194Z,101335.31
2023-04-16T06:54:48.502Z,101330.09
2023-04-16T06:57:15.018Z,101337.91
2023-04-16T06:59:41.772Z,101342.25
2023-04-16T07:02:10.609Z,101336.19
2023-04-16T07:04:37.301Z,101330.09
2023-04-16T07:07:03.985Z,101337.94
2023-04-16T07:09:30.530Z,101335.31
2023-04-16T07:11:57.034Z,101335.28
2023-04-16T07:14:23.562Z,101338.78
2023-04-16T07:16:50.294Z,101344.00
2023-04-16T07:19:16.984Z,101352.69
2023-04-16T07:21:43.761Z,101353.56
2023-04-16T07:24:14.163Z,101348.38
2023-04-16T07:26:41.005Z,101352.69
2023-04-16T07:29:07.514Z,101346.59
2023-04-16T07:31:34.087Z,101353.56
2023-04-16T07:34:00.648Z,101357.06
2023-04-16T07:36:28.329Z,101353.56
2023-04-16T07:38:54.794Z,101359.66
2023-04-16T07:41:21.368Z,101364.88
2023-04-16T07:43:47.841Z,101366.59
2023-04-16T07:46:14.428Z,101369.22
2023-04-16T07:48:41.229Z,101372.72
2023-04-16T07:51:07.872Z,101374.44
2023-04-16T07:53:34.367Z,101380.53
2023-04-16T07:56:00.803Z,101384.88
2023-04-16T07:58:27.327Z,101377.91
2023-04-16T08:00:53.849Z,101390.09
2023-04-16T08:03:20.575Z,101383.13
2023-04-16T08:05:47.101Z,101394.44
2023-04-16T08:08:13.542Z,101397.94
2023-04-16T08:10:40.054Z,101402.28
2023-04-16T08:13:06.866Z,101400.53
2023-04-16T08:15:33.439Z,101414.47
2023-04-16T08:18:00.013Z,101408.34
2023-04-16T08:20:26.640Z,101407.47
2023-04-16T08:22:56.724Z,101415.28
2023-04-16T08:25:24.629Z,101410.06
2023-04-16T08:27:51.190Z,101411.81
2023-04-16T08:30:17.747Z,101423.13
2023-04-16T08:32:44.386Z,101420.50
2023-04-16T08:35:10.900Z,101415.25
2023-04-16T08:37:37.382Z,101420.47
2023-04-16T08:40:04.058Z,101424.81
2023-04-16T08:42:34.021Z,101428.28
2023-04-16T08:45:08.640Z,101425.69
2023-04-16T08:47:37.268Z,101424.78
2023-04-16T08:50:05.252Z,101427.38
2023-04-16T08:52:32.432Z,101429.97
2023-04-16T08:55:12.358Z,101433.44
2023-04-16T08:57:44.625Z,101444.69
2023-04-16T09:00:12.088Z,101444.69
2023-04-16T09:02:39.217Z,101440.34
2023-04-16T09:05:07.564Z,101442.06
2023-04-16T09:07:35.539Z,101445.53
2023-04-16T09:10:03.320Z,101443.81
2023-04-16T09:12:30.660Z,101442.03
2023-04-16T09:14:59.765Z,101443.75
2023-04-16T09:17:27.164Z,101443.69
2023-04-16T09:19:54.858Z,101445.44
2023-04-16T09:22:21.361Z,101449.81
2023-04-16T09:24:47.866Z,101446.34
2023-04-16T09:27:14.303Z,101449.81
2023-04-16T09:29:41.994Z,101453.31
2023-04-16T09:32:10.022Z,101462.91
2023-04-16T09:34:55.605Z,101457.69
2023-04-16T09:37:22.061Z,101460.31
2023-04-16T09:40:02.579Z,101458.53
2023-04-16T09:42:31.774Z,101459.34
2023-04-16T09:45:00.927Z,101462.72
2023-04-16T09:47:41.188Z,101462.72
2023-04-16T09:50:13.234Z,101468.84
2023-04-16T09:52:39.902Z,101465.34
2023-04-16T09:55:06.880Z,101468.84
2023-04-16T09:57:33.331Z,101467.09
2023-04-16T10:00:11.838Z,101466.19
2023-04-16T10:02:42.560Z,101470.53
2023-04-16T10:05:09.655Z,101471.41
2023-04-16T10:07:37.102Z,101469.66
2023-04-16T10:10:04.979Z,101479.22
2023-04-16T10:12:32.819Z,101483.53
2023-04-16T10:14:59.413Z,101468.59
2023-04-16T10:17:26.681Z,101481.63
2023-04-16T10:19:54.620Z,101471.94
2023-04-16T10:22:21.398Z,101474.44
2023-04-16T10:24:49.900Z,101472.88
2023-04-16T10:27:17.612Z,101477.22
2023-04-16T10:29:44.992Z,101474.53
2023-04-16T10:32:12.120Z,101470.16
2023-04-16T10:34:39.135Z,101476.22
2023-04-16T10:37:05.598Z,101478.75
2023-04-16T10:39:37.405Z,101474.34
2023-04-16T10:42:09.020Z,101468.97
2023-04-16T10:44:36.126Z,101471.44
2023-04-16T10:47:02.849Z,101469.56
2023-04-16T10:49:29.367Z,101470.31
2023-04-16T10:52:13.449Z,101474.63
2023-04-16T10:54:41.239Z,101467.75
2023-04-16T10:57:16.264Z,101472.16
2023-04-16T10:59:44.095Z,101471.94
2023-04-16T11:02:18.048Z,101477.13
2023-04-16T11:04:46.662Z,101461.56
2023-04-16T11:07:19.377Z,101464.81
2023-04-16T11:09:53.440Z,101468.25
2023-04-16T11:12:32.706Z,101464.84
2023-04-16T11:15:00.424Z,101471.06
2023-04-16T11:17:36.491Z,101470.19
2023-04-16T11:20:05.155Z,101465.03
2023-04-16T11:22:46.494Z,101471.94
2023-04-16T11:25:13.563Z,101472.81
2023-04-16T11:27:40.963Z,101473.47
2023-04-16T11:30:09.692Z,101469.00
2023-04-16T11:32:38.525Z,101474.34
2023-04-16T11:35:19.002Z,101478.63
2023-04-16T11:37:46.756Z,101477.72
2023-04-16T11:40:13.495Z,101479.47
2023-04-16T11:42:42.088Z,101485.78
2023-04-16T11:45:10.980Z,101488.56
2023-04-16T11:47:50.283Z,101483.31
2023-04-16T11:50:19.383Z,101482.38
2023-04-16T11:52:46.933Z,101478.66
2023-04-16T11:55:13.492Z,101488.97
2023-04-16T11:57:40.246Z,101486.88
2023-04-16T12:00:10.982Z,101488.50
2023-04-16T12:02:41.544Z,101482.00
2023-04-16T12:05:32.730Z,101482.66
2023-04-16T12:08:01.219Z,101483.66
2023-04-16T12:10:28.580Z,101478.31
2023-04-16T12:12:55.953Z,101491.50
2023-04-16T12:15:22.411Z,101496.09
2023-04-16T12:17:50.447Z,101493.50
2023-04-16T12:20:16.967Z,101495.97
2023-04-16T12:22:49.423Z,101492.47
2023-04-16T12:25:18.000Z,101487.19
2023-04-16T12:27:54.018Z,101491.47
2023-04-16T12:30:22.959Z,101487.78
2023-04-16T12:32:51.628Z,101492.06
2023-04-16T12:35:31.641Z,101504.50
2023-04-16T12:37:58.227Z,101501.31
2023-04-16T12:40:24.761Z,101498.00
2023-04-16T12:42:51.289Z,101494.50
2023-04-16T12:45:17.818Z,101498.81
2023-04-16T12:47:44.411Z,101498.97
2023-04-16T12:50:11.088Z,101496.34
2023-04-16T12:52:37.613Z,101495.56
2023-04-16T12:55:04.572Z,101499.00
2023-04-16T12:57:31.091Z,101498.88
2023-04-16T12:59:58.413Z,101495.34
2023-04-16T13:02:25.710Z,101492.69
2023-04-16T13:04:53.264Z,101495.38
2023-04-16T13:07:19.891Z,101485.69
2023-04-16T13:09:46.588Z,101484.72
2023-04-16T13:12:13.105Z,101493.47
2023-04-16T13:14:39.702Z,101486.38
2023-04-16T13:17:06.123Z,101487.22
2023-04-16T13:19:32.606Z,101490.75
2023-04-16T13:21:59.280Z,101488.25
2023-04-16T13:24:25.821Z,101491.00
2023-04-16T13:26:52.502Z,101490.13
2023-04-16T13:29:19.731Z,101492.84
2023-04-16T13:31:46.979Z,101491.09
2023-04-16T13:34:13.414Z,101484.13
2023-04-16T13:36:40.291Z,101485.00
2023-04-16T13:39:11.474Z,101490.25
2023-04-16T13:41:38.756Z,101488.53
2023-04-16T13:44:05.659Z,101495.56
2023-04-16T13:46:32.391Z,101495.56
2023-04-16T13:48:58.975Z,101496.47
2023-04-16T13:51:25.455Z,101482.44
2023-04-16T13:53:51.853Z,101482.34
2023-04-16T13:56:18.317Z,101483.97
2023-04-16T13:58:44.756Z,101483.97
2023-04-16T14:01:11.476Z,101486.59
2023-04-16T14:03:38.947Z,101478.72
2023-04-16T14:06:05.588Z,101477.78
2023-04-16T14:08:32.137Z,101471.63
2023-04-16T14:10:58.897Z,101478.56
2023-04-16T14:13:25.551Z,101484.59
2023-04-16T14:15:55.691Z,101470.56
2023-04-16T14:18:22.218Z,101481.94
2023-04-16T14:20:48.642Z,101483.66
2023-04-16T14:23:15.131Z,101480.09
2023-04-16T14:25:41.660Z,101488.06
2023-04-16T14:28:09.230Z,101488.00
2023-04-16T14:30:35.793Z,101488.97
2023-04-16T14:33:04.819Z,101482.84
2023-04-16T14:35:31.321Z,101485.44
2023-04-16T14:37:58.340Z,101485.47
2023-04-16T14:40:24.832Z,101488.09
2023-04-16T14:42:51.362Z,101492.47
2023-04-16T14:45:17.766Z,101485.47
2023-04-16T14:47:47.752Z,101486.34
2023-04-16T14:50:14.852Z,101488.97
2023-04-16T14:52:41.702Z,101487.16
2023-04-16T14:55:08.258Z,101475.72
2023-04-16T14:57:35.277Z,101484.47
2023-04-16T15:00:02.327Z,101487.91
2023-04-16T15:02:29.006Z,101483.47
2023-04-16T15:04:55.584Z,101476.44
2023-04-16T15:07:22.234Z,101477.25
2023-04-16T15:09:48.690Z,101477.25
2023-04-16T15:12:16.231Z,101476.28
2023-04-16T15:14:43.940Z,101467.47
2023-04-16T15:17:10.581Z,101483.03
2023-04-16T15:19:37.227Z,101479.38
2023-04-16T15:22:03.659Z,101477.66
2023-04-16T15:24:30.335Z,101473.16
2023-04-16T15:26:57.329Z,101470.38
2023-04-16T15:29:23.791Z,101474.41
2023-04-16T15:31:50.271Z,101472.19
2023-04-16T15:34:16.776Z,101479.91
2023-04-16T15:36:43.315Z,101476.06
2023-04-16T15:39:10.652Z,101484.81
2023-04-16T15:41:46.954Z,101480.41
2023-04-16T15:44:23.935Z,101479.56
2023-04-16T15:46:50.550Z,101478.56
2023-04-16T15:49:17.155Z,101479.41
2023-04-16T17:26:02.597Z,101498.63
2023-04-16T17:28:29.071Z,101503.13
2023-04-16T17:30:56.872Z,101503.22
2023-04-16T17:33:23.380Z,101501.47
2023-04-16T17:35:49.885Z,101499.78
2023-04-16T17:38:16.325Z,101507.69
2023-04-16T17:40:42.942Z,101513.00
2023-04-16T18:44:20.857Z,101543.16
2023-04-16T18:46:47.439Z,101539.69
2023-04-16T18:49:14.078Z,101556.31
2023-04-16T18:51:41.992Z,101551.94
2023-04-16T18:54:08.466Z,101558.03
2023-04-16T18:56:34.930Z,101556.31
2023-04-16T18:59:01.745Z,101551.94
2023-04-16T19:01:28.279Z,101564.19
2023-04-16T19:03:54.867Z,101567.72
2023-04-16T19:06:21.416Z,101569.44
2023-04-16T19:08:47.858Z,101559.84
2023-04-16T19:11:14.308Z,101554.56
2023-04-16T19:13:40.778Z,101559.88
2023-04-16T19:16:11.378Z,101566.88
2023-04-16T19:18:39.002Z,101569.50
2023-04-16T19:21:06.905Z,101573.91
2023-04-16T19:23:33.360Z,101573.91
2023-04-16T19:26:01.397Z,101580.06
2023-04-16T19:28:28.319Z,101577.44
2023-04-16T19:30:55.959Z,101586.19
2023-04-16T19:33:22.490Z,101575.72
2023-04-16T19:35:49.015Z,101573.97
2023-04-16T19:38:15.583Z,101581.00
2023-04-16T19:40:46.671Z,101588.00
2023-04-16T19:43:13.423Z,101580.13
2023-04-16T19:45:47.396Z,101577.53
2023-04-16T19:48:14.572Z,101581.88
2023-04-16T19:50:42.219Z,101574.00
2023-04-16T19:53:09.037Z,101577.53
2023-04-16T19:55:35.762Z,101587.16
2023-04-16T19:58:06.131Z,101591.56
2023-04-16T20:00:40.678Z,101588.06
2023-04-16T20:03:07.582Z,101587.19
2023-04-16T20:05:34.114Z,101589.81
2023-04-16T20:08:00.839Z,101588.97
2023-04-16T20:10:27.760Z,101588.09
2023-04-16T20:12:54.233Z,101595.97
2023-04-16T20:15:20.934Z,101585.50
2023-04-16T20:17:47.516Z,101589.91
2023-04-16T20:20:15.888Z,101587.28
2023-04-16T20:22:42.975Z,101596.88
2023-04-16T20:25:09.666Z,101596.91
2023-04-16T20:27:36.179Z,101604.75
2023-04-16T20:30:03.631Z,101598.66
2023-04-16T20:32:30.142Z,101599.56
2023-04-16T20:34:56.711Z,101603.06
2023-04-16T20:37:23.214Z,101600.44
2023-04-16T20:39:53.987Z,101593.47
2023-04-16T20:42:21.972Z,101594.34
2023-04-16T20:44:50.581Z,101598.69
2023-04-16T20:47:17.242Z,101591.75
2023-04-16T20:49:47.279Z,101592.59
2023-04-16T20:52:14.746Z,101591.78
2023-04-16T20:54:41.555Z,101593.53
2023-04-16T20:57:08.196Z,101592.66
2023-04-16T20:59:34.795Z,101588.31
2023-04-16T21:02:01.608Z,101586.56
2023-04-16T21:04:28.274Z,101591.84
2023-04-16T21:06:54.996Z,101588.34
2023-04-16T21:09:21.880Z,101590.09
2023-04-16T21:11:48.456Z,101588.34
2023-04-16T21:14:14.887Z,101585.69
2023-04-16T21:16:41.359Z,101591.81
2023-04-16T21:19:08.694Z,101594.44
2023-04-16T21:21:35.530Z,101589.22
2023-04-16T21:24:02.150Z,101586.56
2023-04-16T21:26:28.662Z,101584.84
2023-04-16T21:28:55.442Z,101587.47
2023-04-16T21:31:21.975Z,101581.34
2023-04-16T21:33:48.623Z,101590.09
2023-04-16T21:36:15.471Z,101586.59
2023-04-16T21:38:41.990Z,101588.34
2023-04-16T21:41:08.414Z,101594.47
2023-04-16T21:43:34.836Z,101585.72
2023-04-16T21:46:01.351Z,101590.06
2023-04-16T21:48:28.571Z,101587.44
2023-04-16T21:51:00.989Z,101580.47
2023-04-16T21:53:31.934Z,101586.63
2023-04-16T21:55:58.528Z,101585.75
2023-04-16T21:58:27.964Z,101584.88
2023-04-16T22:00:54.531Z,101588.41
2023-04-16T22:03:28.140Z,101595.34
2023-04-16T22:06:00.922Z,101592.75
2023-04-16T22:08:31.377Z,101597.97
2023-04-16T22:10:59.156Z,101597.16
2023-04-16T22:13:26.274Z,101597.19
2023-04-16T22:15:53.232Z,101590.19
2023-04-16T22:18:19.683Z,101588.44
2023-04-16T22:20:47.178Z,101584.09
2023-04-16T22:23:14.158Z,101593.69
2023-04-16T22:25:40.622Z,101589.31
2023-04-16T22:28:07.150Z,101590.22
2023-04-16T22:30:33.637Z,101585.88
2023-04-16T22:33:00.901Z,101585.88
2023-04-16T22:35:27.506Z,101583.25
2023-04-16T22:37:53.946Z,101585.88
2023-04-16T22:40:20.462Z,101576.28
2023-04-16T22:42:47.708Z,101590.28
2023-04-16T22:45:14.152Z,101585.03
2023-04-16T22:47:41.556Z,101577.16
2023-04-16T22:50:08.565Z,101587.66
2023-04-16T22:52:35.012Z,101587.66
2023-04-16T22:55:01.512Z,101586.78
2023-04-16T22:57:27.936Z,101586.78
2023-04-16T22:59:54.580Z,101583.25
2023-04-16T23:02:21.511Z,101579.78
2023-04-16T23:04:48.177Z,101577.19
2023-04-16T23:07:15.662Z,101586.78
2023-04-16T23:09:42.629Z,101590.25
2023-04-16T23:12:09.124Z,101582.38
2023-04-16T23:14:36.876Z,101596.34
2023-04-16T23:17:03.514Z,101583.31
2023-04-16T23:19:31.125Z,101581.56
2023-04-16T23:21:57.898Z,101577.19
2023-04-16T23:24:24.441Z,101592.91
2023-04-16T23:26:52.395Z,101585.91
2023-04-16T23:29:19.436Z,101587.66
2023-04-16T23:31:45.995Z,101585.91
2023-04-16T23:34:12.465Z,101579.78
2023-04-16T23:36:39.323Z,101581.56
2023-04-16T23:39:05.744Z,101586.78
2023-04-16T23:41:32.179Z,101579.81
2023-04-16T23:43:59.006Z,101592.91
2023-04-16T23:46:26.190Z,101593.81
2023-04-16T23:48:52.729Z,101586.81
2023-04-16T23:51:19.211Z,101576.34
2023-04-16T23:53:45.728Z,101587.66
2023-04-16T23:56:12.173Z,101577.22
2023-04-16T23:58:38.830Z,101580.69
